sensor_id;sensor_type;location;lat;lon;timestamp;pressure;altitude;pressure_sealevel;temperature;humidity
9187;BME280;7273;48.902;9.410;2022-12-10T00:01:33;96819.78;;;2.37;nan
9187;BME280;7273;48.902;9.410;2022-12-10T00:04:00;96818.28;;;2.46;nan
9187;BME280;7273;48.902;9.410;2022-12-10T00:06:28;96812.69;;;2.48;nan
9187;BME280;7273;48.902;9.410;2022-12-10T00:08:54;96810.78;;;2.43;nan
9187;BME280;7273;48.902;9.410;2022-12-10T00:11:21;96825.34;;;2.31;nan
9187;BME280;7273;48.902;9.410;2022-12-10T00:13:47;96826.41;;;2.30;nan
9187;BME280;7273;48.902;9.410;2022-12-10T00:16:15;96822.41;;;2.27;nan
9187;BME280;7273;48.902;9.410;2022-12-10T00:18:42;96816.34;;;2.37;nan
9187;BME280;7273;48.902;9.410;2022-12-10T00:21:11;96816.34;;;2.37;nan
9187;BME280;7273;48.902;9.410;2022-12-10T00:23:37;96811.78;;;2.37;nan
9187;BME280;7273;48.902;9.410;2022-12-10T00:26:11;96816.84;;;2.34;nan
9187;BME280;7273;48.902;9.410;2022-12-10T00:28:38;96814.66;;;2.31;nan
9187;BME280;7273;48.902;9.410;2022-12-10T00:31:13;96811.72;;;2.27;nan
9187;BME280;7273;48.902;9.410;2022-12-10T00:33:39;96810.97;;;2.32;nan
9187;BME280;7273;48.902;9.410;2022-12-10T00:36:11;96810.78;;;2.43;nan
9187;BME280;7273;48.902;9.410;2022-12-10T00:38:37;96807.34;;;2.48;nan
9187;BME280;7273;48.902;9.410;2022-12-10T00:41:04;96807.56;;;2.41;nan
9187;BME280;7273;48.902;9.410;2022-12-10T00:43:29;96811.03;;;2.42;nan
9187;BME280;7273;48.902;9.410;2022-12-10T00:45:55;96812.84;;;2.36;nan
9187;BME280;7273;48.902;9.410;2022-12-10T00:48:21;96803.47;;;2.29;nan
9187;BME280;7273;48.902;9.410;2022-12-10T00:50:57;96797.13;;;2.35;nan
9187;BME280;7273;48.902;9.410;2022-12-10T00:53:24;96801.38;;;2.36;nan
9187;BME280;7273;48.902;9.410;2022-12-10T00:55:50;96806.22;;;2.44;nan
9187;BME280;7273;48.902;9.410;2022-12-10T00:58:15;96811.34;;;2.50;nan
9187;BME280;7273;48.902;9.410;2022-12-10T01:00:40;96809.91;;;2.33;nan
9187;BME280;7273;48.902;9.410;2022-12-10T01:03:06;96811.09;;;2.47;nan
9187;BME280;7273;48.902;9.410;2022-12-10T01:05:31;96818.31;;;2.51;nan
9187;BME280;7273;48.902;9.410;2022-12-10T01:07:57;96820.16;;;2.51;nan
9187;BME280;7273;48.902;9.410;2022-12-10T01:10:22;96821.53;;;2.53;nan
9187;BME280;7273;48.902;9.410;2022-12-10T01:12:47;96824.94;;;2.49;nan
9187;BME280;7273;48.902;9.410;2022-12-10T01:15:13;96833.50;;;2.51;nan
9187;BME280;7273;48.902;9.410;2022-12-10T01:17:38;96836.13;;;2.46;nan
9187;BME280;7273;48.902;9.410;2022-12-10T01:20:04;96833.16;;;2.42;nan
9187;BME280;7273;48.902;9.410;2022-12-10T01:22:29;96841.44;;;2.41;nan
9187;BME280;7273;48.902;9.410;2022-12-10T01:24:55;96849.72;;;2.44;nan
9187;BME280;7273;48.902;9.410;2022-12-10T01:27:20;96841.94;;;2.38;nan
9187;BME280;7273;48.902;9.410;2022-12-10T01:29:46;96856.44;;;2.47;nan
9187;BME280;7273;48.902;9.410;2022-12-10T01:32:11;96861.81;;;2.52;nan
9187;BME280;7273;48.902;9.410;2022-12-10T01:34:37;96867.88;;;2.47;nan
9187;BME280;7273;48.902;9.410;2022-12-10T01:37:02;96860.41;;;2.44;nan
9187;BME280;7273;48.902;9.410;2022-12-10T01:39:27;96863.88;;;2.45;nan
9187;BME280;7273;48.902;9.410;2022-12-10T01:41:55;96869.22;;;2.45;nan
9187;BME280;7273;48.902;9.410;2022-12-10T01:46:50;96863.38;;;2.48;nan
9187;BME280;7273;48.902;9.410;2022-12-10T01:49:22;96869.63;;;2.32;nan
9187;BME280;7273;48.902;9.410;2022-12-10T01:51:54;96878.25;;;2.44;nan
9187;BME280;7273;48.902;9.410;2022-12-10T01:54:23;96871.84;;;2.40;nan
9187;BME280;7273;48.902;9.410;2022-12-10T01:56:59;96874.19;;;2.36;nan
9187;BME280;7273;48.902;9.410;2022-12-10T01:59:27;96879.53;;;2.36;nan
9187;BME280;7273;48.902;9.410;2022-12-10T02:13:13;96872.25;;;2.27;nan
9187;BME280;7273;48.902;9.410;2022-12-10T02:15:46;96874.72;;;2.33;nan
9187;BME280;7273;48.902;9.410;2022-12-10T02:18:20;96875.53;;;2.34;nan
9187;BME280;7273;48.902;9.410;2022-12-10T02:20:50;96867.53;;;2.34;nan
9187;BME280;7273;48.902;9.410;2022-12-10T02:23:24;96865.66;;;2.34;nan
9187;BME280;7273;48.902;9.410;2022-12-10T02:25:58;96853.63;;;2.32;nan
9187;BME280;7273;48.902;9.410;2022-12-10T02:31:18;96850.72;;;2.33;nan
9187;BME280;7273;48.902;9.410;2022-12-10T02:33:50;96853.13;;;2.35;nan
9187;BME280;7273;48.902;9.410;2022-12-10T02:36:18;96853.59;;;2.27;nan
9187;BME280;7273;48.902;9.410;2022-12-10T02:38:46;96841.81;;;2.23;nan
9187;BME280;7273;48.902;9.410;2022-12-10T02:41:28;96849.56;;;2.24;nan
9187;BME280;7273;48.902;9.410;2022-12-10T02:43:58;96850.09;;;2.26;nan
9187;BME280;7273;48.902;9.410;2022-12-10T02:46:26;96851.47;;;2.29;nan
9187;BME280;7273;48.902;9.410;2022-12-10T02:48:57;96842.72;;;2.33;nan
9187;BME280;7273;48.902;9.410;2022-12-10T02:51:23;96841.31;;;2.26;nan
9187;BME280;7273;48.902;9.410;2022-12-10T02:54:02;96838.09;;;2.24;nan
9187;BME280;7273;48.902;9.410;2022-12-10T02:56:50;96842.72;;;2.33;nan
9187;BME280;7273;48.902;9.410;2022-12-10T02:59:30;96837.38;;;2.33;nan
9187;BME280;7273;48.902;9.410;2022-12-10T03:02:19;96837.13;;;2.35;nan
9187;BME280;7273;48.902;9.410;2022-12-10T03:04:53;96827.00;;;2.37;nan
9187;BME280;7273;48.902;9.410;2022-12-10T03:07:28;96829.13;;;2.35;nan
9187;BME280;7273;48.902;9.410;2022-12-10T03:10:03;96825.81;;;2.23;nan
9187;BME280;7273;48.902;9.410;2022-12-10T03:12:46;96823.94;;;2.23;nan
9187;BME280;7273;48.902;9.410;2022-12-10T03:15:14;96818.72;;;2.33;nan
9187;BME280;7273;48.902;9.410;2022-12-10T03:17:42;96819.94;;;2.21;nan
9187;BME280;7273;48.902;9.410;2022-12-10T03:20:12;96812.78;;;2.26;nan
9187;BME280;7273;48.902;9.410;2022-12-10T03:22:42;96818.06;;;2.21;nan
9187;BME280;7273;48.902;9.410;2022-12-10T03:25:10;96822.22;;;2.07;nan
9187;BME280;7273;48.902;9.410;2022-12-10T03:27:39;96819.81;;;2.06;nan
9187;BME280;7273;48.902;9.410;2022-12-10T03:30:07;96822.16;;;2.02;nan
9187;BME280;7273;48.902;9.410;2022-12-10T03:32:33;96824.47;;;1.94;nan
9187;BME280;7273;48.902;9.410;2022-12-10T03:35:00;96826.13;;;2.00;nan
9187;BME280;7273;48.902;9.410;2022-12-10T03:37:27;96820.81;;;2.00;nan
9187;BME280;7273;48.902;9.410;2022-12-10T03:39:55;96827.25;;;2.04;nan
9187;BME280;7273;48.902;9.410;2022-12-10T03:42:21;96836.84;;;2.05;nan
9187;BME280;7273;48.902;9.410;2022-12-10T03:44:49;96823.50;;;2.05;nan
9187;BME280;7273;48.902;9.410;2022-12-10T03:47:16;96818.13;;;2.00;nan
9187;BME280;7273;48.902;9.410;2022-12-10T03:49:43;96820.09;;;2.09;nan
9187;BME280;7273;48.902;9.410;2022-12-10T03:52:09;96809.41;;;2.04;nan
9187;BME280;7273;48.902;9.410;2022-12-10T03:54:35;96801.94;;;2.06;nan
9187;BME280;7273;48.902;9.410;2022-12-10T03:57:00;96805.72;;;2.10;nan
9187;BME280;7273;48.902;9.410;2022-12-10T03:59:26;96807.81;;;2.08;nan
9187;BME280;7273;48.902;9.410;2022-12-10T04:01:51;96816.06;;;2.07;nan
9187;BME280;7273;48.902;9.410;2022-12-10T04:04:17;96823.50;;;2.05;nan
9187;BME280;7273;48.902;9.410;2022-12-10T04:06:43;96826.94;;;2.00;nan
9187;BME280;7273;48.902;9.410;2022-12-10T04:09:13;96826.69;;;2.02;nan
9187;BME280;7273;48.902;9.410;2022-12-10T04:11:39;96838.47;;;2.06;nan
9187;BME280;7273;48.902;9.410;2022-12-10T04:14:05;96834.47;;;2.08;nan
9187;BME280;7273;48.902;9.410;2022-12-10T04:16:49;96848.00;;;2.02;nan
9187;BME280;7273;48.902;9.410;2022-12-10T04:19:16;96850.72;;;2.07;nan
9187;BME280;7273;48.902;9.410;2022-12-10T04:21:43;96851.84;;;2.11;nan
9187;BME280;7273;48.902;9.410;2022-12-10T04:24:30;96854.00;;;2.14;nan
9187;BME280;7273;48.902;9.410;2022-12-10T04:27:21;96853.13;;;2.08;nan
9187;BME280;7273;48.902;9.410;2022-12-10T04:29:47;96851.59;;;2.12;nan
9187;BME280;7273;48.902;9.410;2022-12-10T04:32:13;96864.88;;;2.07;nan
9187;BME280;7273;48.902;9.410;2022-12-10T04:34:39;96851.50;;;2.02;nan
9187;BME280;7273;48.902;9.410;2022-12-10T04:37:05;96858.78;;;2.12;nan
9187;BME280;7273;48.902;9.410;2022-12-10T04:39:30;96868.88;;;2.10;nan
9187;BME280;7273;48.902;9.410;2022-12-10T04:41:56;96872.38;;;2.10;nan
9187;BME280;7273;48.902;9.410;2022-12-10T04:44:21;96868.38;;;2.13;nan
9187;BME280;7273;48.902;9.410;2022-12-10T04:46:47;96868.63;;;2.11;nan
9187;BME280;7273;48.902;9.410;2022-12-10T04:49:13;96873.72;;;2.13;nan
9187;BME280;7273;48.902;9.410;2022-12-10T04:51:39;96863.84;;;2.13;nan
9187;BME280;7273;48.902;9.410;2022-12-10T04:54:05;96872.09;;;2.12;nan
9187;BME280;7273;48.902;9.410;2022-12-10T04:56:31;96873.44;;;2.09;nan
9187;BME280;7273;48.902;9.410;2022-12-10T04:58:57;96877.94;;;2.09;nan
9187;BME280;7273;48.902;9.410;2022-12-10T05:01:23;96878.16;;;2.02;nan
9187;BME280;7273;48.902;9.410;2022-12-10T05:03:48;96885.63;;;2.05;nan
9187;BME280;7273;48.902;9.410;2022-12-10T05:06:15;96880.56;;;2.04;nan
9187;BME280;7273;48.902;9.410;2022-12-10T05:08:41;96878.97;;;2.03;nan
9187;BME280;7273;48.902;9.410;2022-12-10T05:11:09;96887.75;;;2.03;nan
9187;BME280;7273;48.902;9.410;2022-12-10T05:13:35;96885.91;;;2.04;nan
9187;BME280;7273;48.902;9.410;2022-12-10T05:16:02;96887.50;;;2.05;nan
9187;BME280;7273;48.902;9.410;2022-12-10T05:18:28;96901.88;;;2.04;nan
9187;BME280;7273;48.902;9.410;2022-12-10T05:20:53;96889.31;;;1.99;nan
9187;BME280;7273;48.902;9.410;2022-12-10T05:23:18;96896.25;;;2.00;nan
9187;BME280;7273;48.902;9.410;2022-12-10T05:26:00;96890.66;;;2.02;nan
9187;BME280;7273;48.902;9.410;2022-12-10T05:28:27;96881.38;;;2.04;nan
9187;BME280;7273;48.902;9.410;2022-12-10T05:30:52;96872.25;;;2.00;nan
9187;BME280;7273;48.902;9.410;2022-12-10T05:33:17;96886.34;;;1.96;nan
9187;BME280;7273;48.902;9.410;2022-12-10T05:35:43;96876.56;;;2.01;nan
9187;BME280;7273;48.902;9.410;2022-12-10T05:38:08;96885.91;;;2.04;nan
9187;BME280;7273;48.902;9.410;2022-12-10T05:40:38;96892.50;;;1.96;nan
9187;BME280;7273;48.902;9.410;2022-12-10T05:43:03;96886.66;;;1.99;nan
9187;BME280;7273;48.902;9.410;2022-12-10T05:45:31;96890.34;;;1.98;nan
9187;BME280;7273;48.902;9.410;2022-12-10T05:47:57;96888.75;;;1.97;nan
9187;BME280;7273;48.902;9.410;2022-12-10T05:50:22;96895.94;;;1.97;nan
9187;BME280;7273;48.902;9.410;2022-12-10T05:52:50;96886.91;;;1.98;nan
9187;BME280;7273;48.902;9.410;2022-12-10T05:55:15;96896.69;;;1.92;nan
9187;BME280;7273;48.902;9.410;2022-12-10T05:57:41;96905.25;;;1.94;nan
9187;BME280;7273;48.902;9.410;2022-12-10T06:00:07;96905.50;;;1.93;nan
9187;BME280;7273;48.902;9.410;2022-12-10T06:02:33;96912.13;;;1.90;nan
9187;BME280;7273;48.902;9.410;2022-12-10T06:04:58;96909.78;;;1.94;nan
9187;BME280;7273;48.902;9.410;2022-12-10T06:07:24;96916.09;;;1.88;nan
9187;BME280;7273;48.902;9.410;2022-12-10T06:09:50;96916.09;;;1.88;nan
9187;BME280;7273;48.902;9.410;2022-12-10T06:12:15;96917.16;;;1.87;nan
9187;BME280;7273;48.902;9.410;2022-12-10T06:14:41;96920.69;;;1.92;nan
9187;BME280;7273;48.902;9.410;2022-12-10T06:17:06;96922.28;;;1.93;nan
9187;BME280;7273;48.902;9.410;2022-12-10T06:19:32;96918.63;;;1.99;nan
9187;BME280;7273;48.902;9.410;2022-12-10T06:21:57;96912.25;;;2.00;nan
9187;BME280;7273;48.902;9.410;2022-12-10T06:24:24;96903.94;;;1.97;nan
9187;BME280;7273;48.902;9.410;2022-12-10T06:26:49;96911.69;;;1.98;nan
9187;BME280;7273;48.902;9.410;2022-12-10T06:29:15;96911.72;;;2.03;nan
9187;BME280;7273;48.902;9.410;2022-12-10T06:31:40;96915.53;;;2.07;nan
9187;BME280;7273;48.902;9.410;2022-12-10T06:34:05;96925.81;;;1.99;nan
9187;BME280;7273;48.902;9.410;2022-12-10T06:36:31;96925.31;;;2.02;nan
9187;BME280;7273;48.902;9.410;2022-12-10T06:38:56;96927.22;;;2.06;nan
9187;BME280;7273;48.902;9.410;2022-12-10T06:41:22;96929.88;;;2.01;nan
9187;BME280;7273;48.902;9.410;2022-12-10T06:43:48;96926.38;;;2.01;nan
9187;BME280;7273;48.902;9.410;2022-12-10T06:46:17;96935.47;;;2.05;nan
9187;BME280;7273;48.902;9.410;2022-12-10T06:48:43;96945.09;;;2.06;nan
9187;BME280;7273;48.902;9.410;2022-12-10T06:51:10;96940.56;;;2.06;nan
9187;BME280;7273;48.902;9.410;2022-12-10T06:53:37;96939.00;;;2.10;nan
9187;BME280;7273;48.902;9.410;2022-12-10T06:56:04;96940.81;;;2.05;nan
9187;BME280;7273;48.902;9.410;2022-12-10T06:58:31;96939.53;;;2.07;nan
9187;BME280;7273;48.902;9.410;2022-12-10T07:01:07;96943.22;;;2.06;nan
9187;BME280;7273;48.902;9.410;2022-12-10T07:03:33;96936.03;;;2.07;nan
9187;BME280;7273;48.902;9.410;2022-12-10T07:05:59;96932.81;;;2.05;nan
9187;BME280;7273;48.902;9.410;2022-12-10T07:08:25;96937.34;;;2.04;nan
9187;BME280;7273;48.902;9.410;2022-12-10T07:10:50;96929.88;;;2.01;nan
9187;BME280;7273;48.902;9.410;2022-12-10T07:13:15;96935.41;;;2.00;nan
9187;BME280;7273;48.902;9.410;2022-12-10T07:15:41;96938.59;;;1.97;nan
9187;BME280;7273;48.902;9.410;2022-12-10T07:18:06;96935.41;;;2.00;nan
9187;BME280;7273;48.902;9.410;2022-12-10T07:20:32;96944.72;;;1.97;nan
9187;BME280;7273;48.902;9.410;2022-12-10T07:22:57;96945.84;;;2.01;nan
9187;BME280;7273;48.902;9.410;2022-12-10T07:25:23;96947.47;;;2.02;nan
9187;BME280;7273;48.902;9.410;2022-12-10T07:27:48;96949.88;;;2.04;nan
9187;BME280;7273;48.902;9.410;2022-12-10T07:30:13;96951.72;;;2.03;nan
9187;BME280;7273;48.902;9.410;2022-12-10T07:32:39;96952.53;;;2.04;nan
9187;BME280;7273;48.902;9.410;2022-12-10T07:35:05;96959.97;;;2.02;nan
9187;BME280;7273;48.902;9.410;2022-12-10T07:37:30;96954.91;;;2.00;nan
9187;BME280;7273;48.902;9.410;2022-12-10T07:39:55;96951.19;;;2.01;nan
9187;BME280;7273;48.902;9.410;2022-12-10T07:42:21;96954.91;;;2.00;nan
9187;BME280;7273;48.902;9.410;2022-12-10T07:44:48;96972.22;;;1.98;nan
9187;BME280;7273;48.902;9.410;2022-12-10T07:47:13;96977.53;;;1.98;nan
9187;BME280;7273;48.902;9.410;2022-12-10T07:49:39;96970.31;;;1.98;nan
9187;BME280;7273;48.902;9.410;2022-12-10T07:52:04;96979.38;;;1.97;nan
9187;BME280;7273;48.902;9.410;2022-12-10T07:54:30;96982.31;;;1.96;nan
9187;BME280;7273;48.902;9.410;2022-12-10T07:56:55;96983.66;;;1.98;nan
9187;BME280;7273;48.902;9.410;2022-12-10T07:59:20;96981.50;;;1.95;nan
9187;BME280;7273;48.902;9.410;2022-12-10T08:01:46;96992.22;;;2.00;nan
9187;BME280;7273;48.902;9.410;2022-12-10T08:04:12;96995.94;;;1.99;nan
9187;BME280;7273;48.902;9.410;2022-12-10T08:06:38;97007.63;;;1.98;nan
9187;BME280;7273;48.902;9.410;2022-12-10T08:09:03;96998.91;;;2.03;nan
9187;BME280;7273;48.902;9.410;2022-12-10T08:11:29;96991.19;;;2.01;nan
9187;BME280;7273;48.902;9.410;2022-12-10T08:13:55;97003.38;;;1.97;nan
9187;BME280;7273;48.902;9.410;2022-12-10T08:16:22;96992.22;;;2.00;nan
9187;BME280;7273;48.902;9.410;2022-12-10T08:18:48;96996.97;;;1.98;nan
9187;BME280;7273;48.902;9.410;2022-12-10T08:21:19;96995.38;;;1.97;nan
9187;BME280;7273;48.902;9.410;2022-12-10T08:23:45;97001.84;;;2.01;nan
9187;BME280;7273;48.902;9.410;2022-12-10T08:26:14;97003.38;;;1.97;nan
9187;BME280;7273;48.902;9.410;2022-12-10T08:28:39;97009.03;;;2.01;nan
9187;BME280;7273;48.902;9.410;2022-12-10T08:31:07;97017.28;;;1.99;nan
9187;BME280;7273;48.902;9.410;2022-12-10T08:33:34;97015.88;;;1.97;nan
9187;BME280;7273;48.902;9.410;2022-12-10T08:36:04;97026.06;;;2.00;nan
9187;BME280;7273;48.902;9.410;2022-12-10T08:38:30;97026.88;;;2.00;nan
9187;BME280;7273;48.902;9.410;2022-12-10T08:40:55;97021.28;;;2.02;nan
9187;BME280;7273;48.902;9.410;2022-12-10T08:43:21;97023.94;;;2.02;nan
9187;BME280;7273;48.902;9.410;2022-12-10T08:45:46;97011.69;;;2.01;nan
9187;BME280;7273;48.902;9.410;2022-12-10T08:48:12;97010.44;;;2.08;nan
9187;BME280;7273;48.902;9.410;2022-12-10T08:50:38;97009.41;;;2.09;nan
9187;BME280;7273;48.902;9.410;2022-12-10T08:53:03;97012.13;;;2.14;nan
9187;BME280;7273;48.902;9.410;2022-12-10T08:55:29;97014.47;;;2.11;nan
9187;BME280;7273;48.902;9.410;2022-12-10T08:57:56;97007.06;;;2.18;nan
9187;BME280;7273;48.902;9.410;2022-12-10T09:00:23;97011.56;;;2.12;nan
9187;BME280;7273;48.902;9.410;2022-12-10T09:02:48;97009.22;;;2.16;nan
9187;BME280;7273;48.902;9.410;2022-12-10T09:05:14;97019.31;;;2.14;nan
9187;BME280;7273;48.902;9.410;2022-12-10T09:07:40;97012.13;;;2.14;nan
9187;BME280;7273;48.902;9.410;2022-12-10T09:10:05;97018.88;;;2.22;nan
9187;BME280;7273;48.902;9.410;2022-12-10T09:12:33;97027.94;;;2.21;nan
9187;BME280;7273;48.902;9.410;2022-12-10T09:14:59;97026.81;;;2.17;nan
9187;BME280;7273;48.902;9.410;2022-12-10T09:17:24;97031.13;;;2.23;nan
9187;BME280;7273;48.902;9.410;2022-12-10T09:19:49;97042.56;;;2.18;nan
9187;BME280;7273;48.902;9.410;2022-12-10T09:22:15;97037.09;;;2.08;nan
9187;BME280;7273;48.902;9.410;2022-12-10T09:24:41;97044.97;;;2.20;nan
9187;BME280;7273;48.902;9.410;2022-12-10T09:27:06;97042.38;;;2.25;nan
9187;BME280;7273;48.902;9.410;2022-12-10T09:29:32;97036.22;;;2.24;nan
9187;BME280;7273;48.902;9.410;2022-12-10T09:31:57;97048.56;;;2.30;nan
9187;BME280;7273;48.902;9.410;2022-12-10T09:34:22;97051.50;;;2.29;nan
9187;BME280;7273;48.902;9.410;2022-12-10T09:36:48;97046.75;;;2.36;nan
9187;BME280;7273;48.902;9.410;2022-12-10T09:39:13;97045.28;;;2.45;nan
9187;BME280;7273;48.902;9.410;2022-12-10T09:44:41;97044.16;;;2.41;nan
9187;BME280;7273;48.902;9.410;2022-12-10T09:47:12;97044.78;;;2.48;nan
9187;BME280;7273;48.902;9.410;2022-12-10T09:52:24;97046.53;;;2.64;nan
9187;BME280;7273;48.902;9.410;2022-12-10T09:54:57;97044.19;;;2.67;nan
9187;BME280;7273;48.902;9.410;2022-12-10T09:59:55;97047.72;;;2.73;nan
9187;BME280;7273;48.902;9.410;2022-12-10T10:02:22;97036.22;;;2.72;nan
9187;BME280;7273;48.902;9.410;2022-12-10T10:04:50;97032.53;;;2.78;nan
9187;BME280;7273;48.902;9.410;2022-12-10T10:07:51;97041.63;;;2.78;nan
9187;BME280;7273;48.902;9.410;2022-12-10T10:12:51;97040.09;;;2.87;nan
9187;BME280;7273;48.902;9.410;2022-12-10T10:15:24;97037.97;;;2.89;nan
9187;BME280;7273;48.902;9.410;2022-12-10T10:17:53;97044.94;;;2.90;nan
9187;BME280;7273;48.902;9.410;2022-12-10T10:20:19;97047.38;;;2.91;nan
9187;BME280;7273;48.902;9.410;2022-12-10T10:22:45;97047.91;;;2.93;nan
9187;BME280;7273;48.902;9.410;2022-12-10T10:25:16;97050.56;;;2.93;nan
9187;BME280;7273;48.902;9.410;2022-12-10T10:27:42;97051.38;;;2.94;nan
9187;BME280;7273;48.902;9.410;2022-12-10T10:30:14;97053.84;;;3.00;nan
9187;BME280;7273;48.902;9.410;2022-12-10T10:35:22;97041.59;;;3.04;nan
9187;BME280;7273;48.902;9.410;2022-12-10T10:37:48;97041.09;;;3.07;nan
9187;BME280;7273;48.902;9.410;2022-12-10T10:42:54;97046.00;;;3.20;nan
9187;BME280;7273;48.902;9.410;2022-12-10T10:48:15;97043.66;;;3.24;nan
9187;BME280;7273;48.902;9.410;2022-12-10T10:50:50;97039.38;;;3.28;nan
9187;BME280;7273;48.902;9.410;2022-12-10T10:53:31;97039.34;;;3.23;nan
9187;BME280;7273;48.902;9.410;2022-12-10T10:56:06;97042.56;;;3.25;nan
9187;BME280;7273;48.902;9.410;2022-12-10T10:58:34;97035.41;;;3.30;nan
9187;BME280;7273;48.902;9.410;2022-12-10T11:01:04;97032.69;;;3.25;nan
9187;BME280;7273;48.902;9.410;2022-12-10T11:03:33;97037.28;;;3.30;nan
9187;BME280;7273;48.902;9.410;2022-12-10T11:06:00;97031.38;;;3.28;nan
9187;BME280;7273;48.902;9.410;2022-12-10T11:08:29;97033.00;;;3.29;nan
9187;BME280;7273;48.902;9.410;2022-12-10T11:11:03;97032.53;;;3.37;nan
9187;BME280;7273;48.902;9.410;2022-12-10T11:13:32;97043.47;;;3.35;nan
9187;BME280;7273;48.902;9.410;2022-12-10T11:18:30;97056.88;;;3.40;nan
9187;BME280;7273;48.902;9.410;2022-12-10T11:20:59;97049.91;;;3.39;nan
9187;BME280;7273;48.902;9.410;2022-12-10T11:23:31;97049.38;;;3.42;nan
9187;BME280;7273;48.902;9.410;2022-12-10T11:26:07;97058.78;;;3.45;nan
9187;BME280;7273;48.902;9.410;2022-12-10T11:34:32;97065.97;;;3.44;nan
9187;BME280;7273;48.902;9.410;2022-12-10T11:45:26;97061.44;;;3.45;nan
9187;BME280;7273;48.902;9.410;2022-12-10T11:50:35;97058.25;;;3.48;nan
9187;BME280;7273;48.902;9.410;2022-12-10T11:53:38;97065.66;;;3.41;nan
9187;BME280;7273;48.902;9.410;2022-12-10T11:56:26;97071.31;;;3.44;nan
9187;BME280;7273;48.902;9.410;2022-12-10T12:05:19;97073.22;;;3.49;nan
9187;BME280;7273;48.902;9.410;2022-12-10T12:13:09;97078.00;;;3.42;nan
9187;BME280;7273;48.902;9.410;2022-12-10T12:16:03;97083.84;;;3.39;nan
9187;BME280;7273;48.902;9.410;2022-12-10T12:18:48;97074.50;;;3.41;nan
9187;BME280;7273;48.902;9.410;2022-12-10T12:21:17;97071.28;;;3.39;nan
9187;BME280;7273;48.902;9.410;2022-12-10T12:24:03;97073.38;;;3.37;nan
9187;BME280;7273;48.902;9.410;2022-12-10T12:26:37;97074.50;;;3.41;nan
9187;BME280;7273;48.902;9.410;2022-12-10T12:29:37;97071.22;;;3.34;nan
9187;BME280;7273;48.902;9.410;2022-12-10T12:32:29;97076.56;;;3.34;nan
9187;BME280;7273;48.902;9.410;2022-12-10T12:35:03;97084.06;;;3.37;nan
9187;BME280;7273;48.902;9.410;2022-12-10T12:37:41;97077.91;;;3.32;nan
9187;BME280;7273;48.902;9.410;2022-12-10T12:40:11;97086.53;;;3.39;nan
9187;BME280;7273;48.902;9.410;2022-12-10T12:42:46;97089.66;;;3.36;nan
9187;BME280;7273;48.902;9.410;2022-12-10T12:45:19;97084.59;;;3.34;nan
9187;BME280;7273;48.902;9.410;2022-12-10T12:48:06;97097.69;;;3.36;nan
9187;BME280;7273;48.902;9.410;2022-12-10T12:50:46;97097.22;;;3.39;nan
9187;BME280;7273;48.902;9.410;2022-12-10T12:53:15;97089.41;;;3.37;nan
9187;BME280;7273;48.902;9.410;2022-12-10T13:01:40;97103.28;;;3.34;nan
9187;BME280;7273;48.902;9.410;2022-12-10T13:04:06;97105.97;;;3.34;nan
9187;BME280;7273;48.902;9.410;2022-12-10T13:06:38;97110.00;;;3.37;nan
9187;BME280;7273;48.902;9.410;2022-12-10T13:11:39;97116.38;;;3.36;nan
9187;BME280;7273;48.902;9.410;2022-12-10T13:30:45;97141.88;;;3.17;nan
9187;BME280;7273;48.902;9.410;2022-12-10T13:33:05;97147.16;;;3.12;nan
9187;BME280;7273;48.902;9.410;2022-12-10T13:35:31;97149.31;;;3.15;nan
9187;BME280;7273;48.902;9.410;2022-12-10T13:38:34;97137.53;;;3.11;nan
9187;BME280;7273;48.902;9.410;2022-12-10T13:41:06;97146.59;;;3.10;nan
9187;BME280;7273;48.902;9.410;2022-12-10T13:43:56;97146.06;;;3.08;nan
9187;BME280;7273;48.902;9.410;2022-12-10T13:49:27;97151.41;;;3.08;nan
9187;BME280;7273;48.902;9.410;2022-12-10T13:52:00;97156.22;;;3.11;nan
9187;BME280;7273;48.902;9.410;2022-12-10T14:00:18;97175.63;;;3.01;nan
9187;BME280;7273;48.902;9.410;2022-12-10T14:05:30;97178.53;;;3.00;nan
9187;BME280;7273;48.902;9.410;2022-12-10T14:08:03;97179.84;;;2.97;nan
9187;BME280;7273;48.902;9.410;2022-12-10T14:10:32;97184.38;;;2.97;nan
9187;BME280;7273;48.902;9.410;2022-12-10T14:13:00;97186.97;;;2.92;nan
9187;BME280;7273;48.902;9.410;2022-12-10T14:15:27;97187.22;;;2.90;nan
9187;BME280;7273;48.902;9.410;2022-12-10T14:18:00;97191.03;;;2.94;nan
9187;BME280;7273;48.902;9.410;2022-12-10T14:20:30;97194.66;;;2.88;nan
9187;BME280;7273;48.902;9.410;2022-12-10T14:23:03;97194.13;;;2.86;nan
9187;BME280;7273;48.902;9.410;2022-12-10T14:25:48;97200.44;;;2.80;nan
9187;BME280;7273;48.902;9.410;2022-12-10T14:28:15;97202.09;;;2.81;nan
9187;BME280;7273;48.902;9.410;2022-12-10T14:30:46;97209.59;;;2.84;nan
9187;BME280;7273;48.902;9.410;2022-12-10T14:33:16;97208.78;;;2.84;nan
9187;BME280;7273;48.902;9.410;2022-12-10T14:35:46;97209.53;;;2.79;nan
9187;BME280;7273;48.902;9.410;2022-12-10T14:38:45;97201.19;;;2.75;nan
9187;BME280;7273;48.902;9.410;2022-12-10T14:41:15;97205.97;;;2.73;nan
9187;BME280;7273;48.902;9.410;2022-12-10T14:43:42;97204.38;;;2.72;nan
9187;BME280;7273;48.902;9.410;2022-12-10T14:46:16;97213.19;;;2.73;nan
9187;BME280;7273;48.902;9.410;2022-12-10T14:48:42;97215.03;;;2.72;nan
9187;BME280;7273;48.902;9.410;2022-12-10T14:51:20;97221.38;;;2.66;nan
9187;BME280;7273;48.902;9.410;2022-12-10T14:53:48;97221.63;;;2.65;nan
9187;BME280;7273;48.902;9.410;2022-12-10T14:56:22;97219.22;;;2.63;nan
9187;BME280;7273;48.902;9.410;2022-12-10T14:59:04;97221.63;;;2.65;nan
9187;BME280;7273;48.902;9.410;2022-12-10T15:01:35;97237.41;;;2.66;nan
9187;BME280;7273;48.902;9.410;2022-12-10T15:04:04;97232.56;;;2.63;nan
9187;BME280;7273;48.902;9.410;2022-12-10T15:06:36;97230.84;;;2.57;nan
9187;BME280;7273;48.902;9.410;2022-12-10T15:09:04;97240.72;;;2.57;nan
9187;BME280;7273;48.902;9.410;2022-12-10T15:11:31;97247.59;;;2.53;nan
9187;BME280;7273;48.902;9.410;2022-12-10T15:14:01;97254.28;;;2.55;nan
9187;BME280;7273;48.902;9.410;2022-12-10T15:16:31;97248.75;;;2.57;nan
9187;BME280;7273;48.902;9.410;2022-12-10T15:19:17;97251.56;;;2.50;nan
9187;BME280;7273;48.902;9.410;2022-12-10T15:21:44;97254.00;;;2.52;nan
9187;BME280;7273;48.902;9.410;2022-12-10T15:24:24;97249.88;;;2.44;nan
9187;BME280;7273;48.902;9.410;2022-12-10T15:26:51;97256.59;;;2.47;nan
9187;BME280;7273;48.902;9.410;2022-12-10T15:31:59;97254.88;;;2.41;nan
9187;BME280;7273;48.902;9.410;2022-12-10T15:34:29;97259.91;;;2.37;nan
9187;BME280;7273;48.902;9.410;2022-12-10T15:37:02;97258.28;;;2.36;nan
9187;BME280;7273;48.902;9.410;2022-12-10T15:39:38;97264.03;;;2.28;nan
9187;BME280;7273;48.902;9.410;2022-12-10T15:42:08;97267.44;;;2.24;nan
9187;BME280;7273;48.902;9.410;2022-12-10T15:44:54;97269.13;;;2.13;nan
9187;BME280;7273;48.902;9.410;2022-12-10T15:47:23;97269.13;;;2.13;nan
9187;BME280;7273;48.902;9.410;2022-12-10T15:49:51;97272.53;;;2.09;nan
9187;BME280;7273;48.902;9.410;2022-12-10T15:52:22;97272.94;;;2.01;nan
9187;BME280;7273;48.902;9.410;2022-12-10T15:54:49;97273.41;;;1.98;nan